Tiempo atmosférico en la estación meteorológica de Pollença, Illes Balears (45 m.)



Fecha
DESCASC
Temp. máxima en grados centígrados (hora)
DESCASC
Temp. mínima en grados centígrados (hora)
DESCASC
Temp. media en grados centígrados
DESCASC
Racha de viento máxima en m/sg (hora)
DESCASC
Velocidad máxima media en intervalos de 10 minutos(hora)
DESCASC
Precipitaciones diarias en mm
DESCASC
Precipitaciones de 00:00 a 06:00 en mm
DESCASC
Precipitaciones de 06:00 a 12:00 en mm
DESCASC
Precipitaciones de 12:00 a 18:00 en mm
DESCASC
Precipitaciones de 18:00 a 24:00 en mm
DESCASC
22-04-2019 15.2 (05:10) 13.4 (01:40) 14.3 8.61 (06:20) 3.89 (06:20) 7.8 0.6 2 3.2 2
21-04-2019 15.9 (00:20) 13.9 (18:30) 14.9 10.56 (20:50) 4.44 (21:00) 3.2 0 0.6 1.8 0.8
20-04-2019 18.7 (16:10) 15.3 (21:50) 17 14.17 (15:30) 6.39 (15:50) 0 0 0 0 0
19-04-2019 17.5 (15:50) 14.9 (05:20) 16.2 12.22 (17:40) 4.72 (17:10) 0 0 0 0 0
18-04-2019 20.1 (13:40) 11.4 (00:00) 15.8 11.39 (12:10) 4.44 (13:50) 0 0 0 0 0
17-04-2019 20.4 (13:20) 9 (00:00) 14.7 7.5 (14:40) 4.72 (14:50) 0 0 0 0 0
16-04-2019 22.9 (14:20) 10.6 (00:00) 16.8 8.33 (01:30) 5 (16:10) 0 0 0 0 0
15-04-2019 20.9 (16:50) 9.1 (00:00) 15 8.33 (22:50) 4.72 (14:20) 0 0 0 0 0
14-04-2019 25.1 (12:40) 5.3 (00:00) 15.2 7.5 (12:00) 3.89 (14:00) 0 0 0 0 0
13-04-2019 22.8 (12:20) 5.6 (00:00) 14.2 8.33 (15:10) 4.72 (15:10) 0 0 0 0 0
12-04-2019 19.2 (16:10) 9.4 (00:00) 14.3 8.33 (02:00) 3.61 (01:50) 0 0 0 0 0
11-04-2019 20.7 (14:50) 11 (00:00) 15.9 10 (13:10) 5.56 (14:10) 0.2 0.2 0 0 0
10-04-2019 19.6 (16:20) 8.2 (00:00) 13.9 9.17 (12:00) 4.72 (11:40) 1.4 0 1.4 0 0
09-04-2019 19.1 (17:50) 9.1 (00:00) 14.1 11.67 (09:40) 6.39 (09:40) 3.2 0 2.6 0.6 0
08-04-2019 21.8 (14:50) 4.3 (00:00) 13 10.28 (12:50) 5 (12:50) 0 0 0 0 0
07-04-2019 16.5 (13:10) 6.5 (00:00) 11.5 13.89 (13:00) 5.56 (13:00) 8 1.2 6.8 0 0
06-04-2019 17.4 (14:20) 7.9 (00:00) 12.6 11.11 (13:40) 5.28 (15:40) 3.4 3.4 0 0 0
05-04-2019 21 (14:50) 2.4 (00:00) 11.7 10.83 (13:40) 5.28 (14:00) 0.6 0 0 0 0.6
04-04-2019 15.5 (15:10) 9.5 (00:00) 12.5 11.39 (11:40) 5.56 (11:40) 0.8 0.8 0 0 0
03-04-2019 22.4 (13:50) 7.7 (00:00) 15 11.67 (14:00) 6.11 (14:40) 0.2 0 0 0 0.2
02-04-2019 21.8 (13:20) 6.2 (00:00) 14 5 (13:10) 1.94 (12:10) 0 0 0 0 0
01-04-2019 18.7 (15:00) 9.8 (00:00) 14.3 5 (13:00) 2.5 (13:00) 0 0 0 0 0
31-03-2019 19.4 (13:50) 10.4 (00:00) 14.9 7.22 (15:00) 3.61 (12:10) 1 0 0 0.2 0.8
30-03-2019 17.4 (13:40) 8.8 (00:00) 13.1 8.61 (14:40) 3.89 (14:30) 0 0 0 0 0
29-03-2019 18 (14:20) 5.2 (00:00) 11.6 7.22 (16:20) 3.89 (16:20) 0 0 0 0 0
28-03-2019 18.2 (13:50) 6.6 (00:00) 12.4 9.17 (13:40) 3.33 (12:50) 0 0 0 0 0
27-03-2019 16.6 (13:00) 7.7 (00:00) 12.2 10.56 (11:10) 5.56 (10:00) 0 0 0 0 0
26-03-2019 15.2 (10:50) 6.6 (00:00) 10.9 13.89 (12:50) 7.78 (13:20) 0 0 0 0 0
25-03-2019 20.7 (10:30) 5.2 (00:00) 13 6.39 (12:30) 3.06 (12:30) 0 0 0 0 0

Gráficas

Temp. máximas Temp. mínimas Temp. medias Precipitaciones Rachas de viento máximas Velocidades máximas media en intervalos de 10 minutos

Datos horarios

Fecha y hora oficial Temperatura (ºC) Velocidad del viento (km/h) Dirección del viento Racha (km/h) Dirección de racha Precipitación (mm) Presión (hPa) Tendencia (hPa) Humedad (%)
2019-04-23 23:00:00 16.2 12 Sur 34 Oeste 0 -- -- 78
2019-04-23 22:00:00 16.3 12 Sudoeste 33 Sudoeste 0 -- -- 79
2019-04-23 21:00:00 16.4 12 Sudoeste 34 Sudoeste 0 -- -- 78
2019-04-23 20:00:00 17.7 10 Sur 28 Sur 0 -- -- 67
2019-04-23 19:00:00 18.4 15 Sur 37 Sudoeste 0 -- -- 67
2019-04-23 18:00:00 19.2 17 Sudoeste 34 Sudoeste 0 -- -- 63
2019-04-23 17:00:00 22.1 21 Sudoeste 40 Sudoeste 0 -- -- 50
2019-04-23 16:00:00 23.4 17 Sudoeste 40 Sudoeste 0 -- -- 42
2019-04-23 15:00:00 23.8 14 Sudoeste 34 Oeste 0 -- -- 50
2019-04-23 14:00:00 22.3 9 Norte 19 Norte 0 -- -- 54
2019-04-23 13:00:00 22.2 6 Norte 21 Sudoeste 0 -- -- 56
2019-04-23 12:00:00 23.3 8 Sudoeste 26 Sudoeste 0 -- -- 49
2019-04-23 11:00:00 21.2 12 Sudoeste 20 Sur 0 -- -- 59
2019-04-23 10:00:00 19.9 3 Sudoeste 9 Oeste 0 -- -- 60
2019-04-23 09:00:00 16.3 7 Oeste 21 Oeste 0 -- -- 71
2019-04-23 08:00:00 14.3 10 Oeste 19 Oeste 0 -- -- 83
2019-04-23 07:00:00 13.8 12 Oeste 32 Oeste 0 -- -- 85
2019-04-23 06:00:00 14 15 Oeste 33 Sudoeste 0 -- -- 91
2019-04-23 05:00:00 13.6 14 Noroeste 34 Oeste 0.2 -- -- 95
2019-04-23 04:00:00 13.7 20 Oeste 39 Oeste 1.6 -- -- 97
2019-04-23 03:00:00 14.4 14 Noroeste 36 Oeste 2 -- -- 98
2019-04-23 02:00:00 14.5 10 Oeste 27 Oeste 1.2 -- -- 99
2019-04-23 01:00:00 14.8 8 Oeste 18 Oeste 0.2 -- -- 99
2019-04-23 00:00:00 14.7 4 Noroeste 12 Noroeste 0.2 -- -- 99
2019-04-22 23:00:00 14.7 5 Norte 15 Noroeste 1 -- -- 99
2019-04-22 22:00:00 14.7 6 Norte 20 Norte 0.2 -- -- 98
2019-04-22 21:00:00 14.6 8 Norte 18 Norte 0 -- -- 98
2019-04-22 20:00:00 14.5 7 Norte 20 Nordeste 0.4 -- -- 97
2019-04-22 19:00:00 14.4 3 Este 15 Nordeste 0.2 -- -- 97
2019-04-22 18:00:00 14.3 10 Nordeste 24 Norte 0.4 -- -- 96
2019-04-22 17:00:00 14.5 6 Norte 19 Nordeste 0.8 -- -- 97
2019-04-22 16:00:00 14.4 6 Nordeste 28 Este 0.6 -- -- 96
2019-04-22 15:00:00 14.4 8 Este 25 Este 0.4 -- -- 95
2019-04-22 14:00:00 14.5 4 Sudeste 19 Este 0.6 -- -- 96
2019-04-22 13:00:00 14.5 7 Este 18 Norte 0.4 -- -- 96
2019-04-22 12:00:00 14.5 7 Este 21 Este 0.6 -- -- 96
2019-04-22 11:00:00 14.5 6 Este 19 Este 0.6 -- -- 96
2019-04-22 10:00:00 14.3 6 Este 22 Sudeste 0.4 -- -- 95
2019-04-22 09:00:00 14.3 12 Este 22 Sudeste 0.2 -- -- 94
2019-04-22 08:00:00 14.3 8 Este 23 Sudeste 0.2 -- -- 93
2019-04-22 07:00:00 15.1 6 Este 31 Este 0 -- -- 84
2019-04-22 06:00:00 15 10 Este 23 Este 0 -- -- 85
2019-04-22 05:00:00 15.1 12 Este 25 Este 0 -- -- 82
2019-04-22 04:00:00 14.8 8 Este 28 Sudeste 0 -- -- 83
2019-04-22 03:00:00 14.3 4 Nordeste 21 Este 0 -- -- 89
2019-04-22 02:00:00 13.5 6 Este 23 Nordeste 0.4 -- -- 92
2019-04-22 01:00:00 14.4 5 Nordeste 13 Este 0.2 -- -- 88
2019-04-22 00:00:00 14.5 4 Sudeste 23 Este 0 -- -- 90
2019-04-21 23:00:00 15 9 Este 27 Este 0 -- -- 83
2019-04-21 22:00:00 14.9 5 Este 33 Este 0 -- -- 79
2019-04-21 21:00:00 14.4 16 Este 38 Este 0 -- -- 82
2019-04-21 20:00:00 14.3 6 Este 23 Este 0 -- -- 84
2019-04-21 19:00:00 13.9 14 Este 33 Nordeste 0.8 -- -- 96
2019-04-21 18:00:00 14.1 14 Este 31 Nordeste 1 -- -- 95
2019-04-21 17:00:00 14.3 14 Este 34 Este 0.6 -- -- 93
2019-04-21 16:00:00 14.7 11 Este 30 Este 0.2 -- -- 92
2019-04-21 15:00:00 15.2 11 Este 24 Este 0 -- -- 90
2019-04-21 14:00:00 14.9 11 Este 25 Este 0 -- -- 90
2019-04-21 13:00:00 14.7 8 Este 25 Este 0 -- -- 91
2019-04-21 12:00:00 14.3 13 Nordeste 28 Este 0.2 -- -- 93
2019-04-21 11:00:00 14.1 11 Este 27 Nordeste 0.4 -- -- 93
2019-04-21 10:00:00 14.2 11 Este 32 Este 0 -- -- 90
2019-04-21 09:00:00 15.3 13 Este 30 Este 0 -- -- 77
2019-04-21 08:00:00 15.3 14 Este 30 Nordeste 0 -- -- 75
2019-04-21 07:00:00 15.4 9 Este 31 Nordeste 0 -- -- 74
2019-04-21 06:00:00 15.2 8 Este 31 Este 0 -- -- 73
2019-04-21 05:00:00 15.1 14 Este 34 Este 0 -- -- 75
2019-04-21 04:00:00 15.1 11 Este 33 Sudeste 0 -- -- 74
2019-04-21 03:00:00 15.3 13 Este 29 Nordeste 0 -- -- 71
2019-04-21 02:00:00 15.2 10 Este 34 Este 0 -- -- 74
2019-04-21 01:00:00 15.7 15 Este 36 Este 0 -- -- 69
2019-04-21 00:00:00 15.7 9 Este 27 Este 0 -- -- 77
2019-04-20 23:00:00 15.5 11 Este 28 Este 0 -- -- 79
2019-04-20 22:00:00 15.3 10 Este 26 Nordeste 0 -- -- 78
2019-04-20 21:00:00 15.5 13 Este 30 Este 0 -- -- 78
2019-04-20 20:00:00 16.1 12 Este 42 Nordeste 0 -- -- 69
2019-04-20 19:00:00 16.8 14 Este 32 Nordeste 0 -- -- 64
2019-04-20 18:00:00 17.3 14 Este 45 Este 0 -- -- 65
2019-04-20 17:00:00 18.3 22 Nordeste 49 Este 0 -- -- 58
2019-04-20 16:00:00 18.1 21 Este 51 Este 0 -- -- 59
2019-04-20 15:00:00 17.8 20 Este 46 Este 0 -- -- 61
2019-04-20 14:00:00 17.9 20 Este 42 Este 0 -- -- 59
2019-04-20 13:00:00 17.4 16 Este 36 Este 0 -- -- 61
2019-04-20 12:00:00 17.2 15 Este 29 Nordeste 0 -- -- 65
2019-04-20 11:00:00 16.3 10 Este 21 Sudeste 0 -- -- 70
2019-04-20 10:00:00 16.5 6 Este 26 Sudeste 0 -- -- 69
2019-04-20 09:00:00 16.3 6 Este 24 Sudeste 0 -- -- 66
2019-04-20 08:00:00 16 8 Nordeste 32 Este 0 -- -- 67
2019-04-20 07:00:00 16 14 Este 36 Nordeste 0 -- -- 65
2019-04-20 06:00:00 16.2 14 Este 41 Nordeste 0 -- -- 63
2019-04-20 05:00:00 16.3 16 Este 42 Este 0 -- -- 61
2019-04-20 04:00:00 16.2 16 Nordeste 37 Este 0 -- -- 66
2019-04-20 03:00:00 16 17 Este 37 Nordeste 0 -- -- 71
2019-04-20 02:00:00 16.1 16 Este 33 Nordeste 0 -- -- 74
2019-04-20 01:00:00 15.9 13 Este 28 Nordeste 0 -- -- 76
2019-04-20 00:00:00 15.8 10 Este 30 Este 0 -- -- 79
2019-04-19 23:00:00 15.8 11 Este 27 Este 0 -- -- 81
2019-04-19 22:00:00 15.7 8 Este 23 Este 0 -- -- 83
2019-04-19 21:00:00 15.8 10 Este 26 Este 0 -- -- 82
2019-04-19 20:00:00 16.8 11 Sudeste 29 Sudeste 0 -- -- 72
2019-04-19 19:00:00 16.8 8 Sudeste 24 Sudeste 0 -- -- 73
2019-04-19 18:00:00 17 11 Sudeste 44 Sudeste 0 -- -- 74
2019-04-19 17:00:00 17 13 Sudeste 41 Sudeste 0 -- -- 72
2019-04-19 16:00:00 17.4 12 Este 40 Este 0 -- -- 70
2019-04-19 15:00:00 17.3 14 Este 36 Este 0 -- -- 70
2019-04-19 14:00:00 16.9 12 Este 38 Sudeste 0 -- -- 72
2019-04-19 13:00:00 16.6 10 Sudeste 31 Este 0 -- -- 72
2019-04-19 12:00:00 16.5 9 Este 35 Sudeste 0 -- -- 71
2019-04-19 11:00:00 16.3 11 Este 39 Sudeste 0 -- -- 73
2019-04-19 10:00:00 16.1 8 Este 28 Este 0 -- -- 75
2019-04-19 09:00:00 15.6 9 Este 29 Este 0 -- -- 79
2019-04-19 08:00:00 15.4 8 Este 29 Este 0 -- -- 81
2019-04-19 07:00:00 15.3 7 Este 27 Este 0 -- -- 82
2019-04-19 06:00:00 15.1 7 Sudeste 26 Sudeste 0 -- -- 86
2019-04-19 05:00:00 15.1 7 Este 19 Sudeste 0 -- -- 86
2019-04-19 04:00:00 15.6 4 Este 16 Este 0 -- -- 79
2019-04-19 03:00:00 15.8 8 Sudeste 22 Sudeste 0 -- -- 76
2019-04-19 02:00:00 15.7 6 Sudeste 27 Sudeste 0 -- -- 75
2019-04-19 01:00:00 15.8 9 Sudeste 22 Sur 0 -- -- 78
2019-04-19 00:00:00 15.9 8 Sudeste 26 Este 0 -- -- 75
2019-04-18 23:00:00 15.7 5 Sudeste 15 Sudeste 0 -- -- 78
2019-04-18 22:00:00 15.5 5 Sudeste 18 Sudeste 0 -- -- 77
2019-04-18 21:00:00 15.8 7 Sudeste 25 Sudeste 0 -- -- 73
2019-04-18 20:00:00 16.2 10 Sudeste 33 Sudeste 0 -- -- 73
2019-04-18 19:00:00 16.8 13 Este 36 Este 0 -- -- 69
2019-04-18 18:00:00 17.7 11 Este 33 Este 0 -- -- 67
2019-04-18 17:00:00 18.2 10 Este 33 Este 0 -- -- 66
2019-04-18 16:00:00 18.4 14 Este 35 Este 0 -- -- 67
2019-04-18 15:00:00 19.6 11 Este 34 Este 0 -- -- 63
2019-04-18 14:00:00 18.6 13 Este 34 Sudeste 0 -- -- 65
2019-04-18 13:00:00 19 13 Este 41 Sudeste 0 -- -- 66
2019-04-18 12:00:00 18.3 11 Sudeste 31 Sudeste 0 -- -- 67
2019-04-18 11:00:00 18.2 9 Este 24 Sudeste 0 -- -- 68
2019-04-18 10:00:00 15.8 10 Sudeste 24 Sudeste 0 -- -- 79
2019-04-18 09:00:00 15.6 6 Sudeste 16 Sudeste 0 -- -- 79
2019-04-18 08:00:00 14.8 4 Sudeste 19 Sudeste 0 -- -- 82
2019-04-18 07:00:00 13.6 5 Este 14 Nordeste 0 -- -- 87
2019-04-18 06:00:00 11.7 0 Calma 4 Nordeste 0 -- -- 95
2019-04-18 05:00:00 11.8 0 Calma 4 Norte 0 -- -- 93
2019-04-18 04:00:00 12.5 0 Calma 16 Sur 0 -- -- 91
2019-04-18 03:00:00 14 6 Sur 18 Sur 0 -- -- 87
2019-04-18 02:00:00 12.3 0 Calma 9 Sur 0 -- -- 92
2019-04-18 01:00:00 12.6 2 Este 8 Sudeste 0 -- -- 90
2019-04-18 00:00:00 12.6 0 Calma 6 Sur 0 -- -- 88
2019-04-17 23:00:00 12.7 0 Calma 9 Sur 0 -- -- 84
2019-04-17 22:00:00 14.8 5 Sur 16 Sur 0 -- -- 75
2019-04-17 21:00:00 14.6 3 Sudeste 9 Este 0 -- -- 78
2019-04-17 20:00:00 16 6 Sudeste 22 Este 0 -- -- 72
2019-04-17 19:00:00 18 7 Este 18 Este 0 -- -- 64
2019-04-17 18:00:00 19.2 7 Este 21 Este 0 -- -- 60
2019-04-17 17:00:00 19.5 13 Nordeste 24 Este 0 -- -- 59
2019-04-17 16:00:00 19.8 13 Nordeste 25 Nordeste 0 -- -- 58
2019-04-17 15:00:00 19.7 14 Nordeste 27 Nordeste 0 -- -- 59
2019-04-17 14:00:00 19.4 15 Nordeste 26 Nordeste 0 -- -- 59
2019-04-17 13:00:00 19.8 12 Nordeste 23 Nordeste 0 -- -- 58
2019-04-17 12:00:00 19.5 10 Nordeste 21 Sudeste 0 -- -- 59
2019-04-17 11:00:00 19.4 8 Sudeste 18 Sudeste 0 -- -- 58
2019-04-17 10:00:00 18.1 4 Sudeste 13 Este 0 -- -- 64
2019-04-17 09:00:00 17.4 0 Calma 3 Nordeste 0 -- -- 65
2019-04-17 08:00:00 9.8 0 Calma 2 Norte 0 -- -- 95
2019-04-17 07:00:00 9 0 Calma 4 Oeste 0 -- -- 93
2019-04-17 06:00:00 10.4 0 Calma 6 Sur 0 -- -- 90
2019-04-17 05:00:00 13.3 3 Sur 13 Sudoeste 0 -- -- 82
2019-04-17 04:00:00 12 0 Calma 3 Nordeste 0 -- -- 90
2019-04-17 03:00:00 11.5 0 Calma 3 Nordeste 0 -- -- 92
2019-04-17 02:00:00 10.8 0 Calma 4 Oeste 0 -- -- 91
2019-04-17 01:00:00 11.5 0 Calma 6 Noroeste 0 -- -- 90
2019-04-17 00:00:00 11.8 0 Calma 7 Oeste 0 -- -- 89
2019-04-16 23:00:00 12.3 2 Noroeste 4 Oeste 0 -- -- 89
2019-04-16 22:00:00 12.9 0 Calma 3 Norte 0 -- -- 85
2019-04-16 21:00:00 14.6 0 Calma 9 Este 0 -- -- 78
2019-04-16 20:00:00 15.7 4 Este 14 Norte 0 -- -- 71
2019-04-16 19:00:00 16.4 9 Nordeste 18 Norte 0 -- -- 69
2019-04-16 18:00:00 17.1 9 Norte 23 Norte 0 -- -- 67
2019-04-16 17:00:00 18.4 13 Norte 28 Nordeste 0 -- -- 61
2019-04-16 16:00:00 18.7 16 Nordeste 27 Nordeste 0 -- -- 52
2019-04-16 15:00:00 21.5 10 Norte 19 Norte 0 -- -- 40
2019-04-16 14:00:00 22.3 4 Norte 23 Sudeste 0 -- -- 31
2019-04-16 13:00:00 21.3 4 Noroeste 16 Este 0 -- -- 42
2019-04-16 12:00:00 21.7 3 Sudeste 15 Sudeste 0 -- -- 48
2019-04-16 11:00:00 20 3 Sur 12 Este 0 -- -- 53
2019-04-16 10:00:00 17.8 6 Este 10 Nordeste 0 -- -- 58
2019-04-16 09:00:00 13.8 3 Norte 11 Sudoeste 0 -- -- 73
2019-04-16 08:00:00 11.9 5 Sudoeste 15 Este 0 -- -- 88
2019-04-16 07:00:00 11.9 7 Este 15 Este 0 -- -- 82
2019-04-16 06:00:00 11.2 3 Nordeste 10 Sudoeste 0 -- -- 83
2019-04-16 05:00:00 10.7 0 Calma 3 Oeste 0 -- -- 85
2019-04-16 04:00:00 11.2 0 Calma 4 Sudoeste 0 -- -- 84
2019-04-16 03:00:00 12.7 4 Norte 22 Sudoeste 0 -- -- 80
2019-04-16 02:00:00 14 10 Sudoeste 30 Oeste 0 -- -- 73
2019-04-16 01:00:00 14.2 6 Este 22 Sudeste 0 -- -- 63
2019-04-16 00:00:00 14.8 6 Sur 26 Sudoeste 0 -- -- 53
2019-04-15 23:00:00 14.8 11 Sudoeste 30 Sudoeste 0 -- -- 54
2019-04-15 22:00:00 15.1 5 Oeste 22 Sur 0 -- -- 44
2019-04-15 21:00:00 15.8 5 Noroeste 20 Oeste 0 -- -- 36
2019-04-15 20:00:00 16.9 9 Este 26 Este 0 -- -- 31
2019-04-15 19:00:00 18.3 10 Sudeste 21 Sudeste 0 -- -- 32
2019-04-15 18:00:00 19.5 6 Sudeste 21 Sudeste 0 -- -- 31
2019-04-15 17:00:00 20.9 10 Sudeste 23 Sudeste 0 -- -- 29
2019-04-15 16:00:00 19.6 10 Este 23 Este 0 -- -- 34
2019-04-15 15:00:00 19.5 15 Nordeste 30 Nordeste 0 -- -- 40
2019-04-15 14:00:00 19.7 16 Nordeste 28 Nordeste 0 -- -- 43
2019-04-15 13:00:00 19.1 14 Nordeste 30 Este 0 -- -- 43
2019-04-15 12:00:00 19.2 9 Este 19 Nordeste 0 -- -- 50
2019-04-15 11:00:00 19.3 8 Este 18 Sudeste 0 -- -- 43
2019-04-15 10:00:00 19.7 7 Sudeste 16 Sur 0 -- -- 38
2019-04-15 09:00:00 17.9 3 Oeste 7 Noroeste 0 -- -- 46
2019-04-15 08:00:00 10.3 2 Norte 5 Sudeste 0 -- -- 74
2019-04-15 07:00:00 9.4 0 Calma 5 Este 0 -- -- 74
2019-04-15 06:00:00 9.3 0 Calma 3 Sudoeste 0 -- -- 73
2019-04-15 05:00:00 10.2 0 Calma 7 Sudeste 0 -- -- 68
2019-04-15 04:00:00 11.9 0 Calma 14 Sudoeste 0 -- -- 61
2019-04-15 03:00:00 11.2 0 Calma 10 Sur 0 -- -- 68
2019-04-15 02:00:00 13.8 5 Sudoeste 10 Sudoeste 0 -- -- 54
2019-04-15 01:00:00 14.7 3 Sudoeste 15 Oeste 0 -- -- 54
2019-04-15 00:00:00 15.4 4 Noroeste 15 Oeste 0 -- -- 65
2019-04-14 23:00:00 15.2 6 Sudeste 14 Nordeste 0 -- -- 72
2019-04-14 22:00:00 13.1 0 Calma 3 Nordeste 0 -- -- 87
2019-04-14 21:00:00 14.6 0 Calma 10 Este 0 -- -- 81
2019-04-14 20:00:00 16.2 3 Este 17 Sudeste 0 -- -- 71
2019-04-14 19:00:00 17.4 10 Sudeste 26 Sudeste 0 -- -- 72
2019-04-14 18:00:00 22.3 8 Nordeste 22 Noroeste 0 -- -- 43
2019-04-14 17:00:00 23.5 10 Norte 22 Norte 0 -- -- 23
2019-04-14 16:00:00 23.6 9 Noroeste 27 Noroeste 0 -- -- 21
2019-04-14 15:00:00 23.5 5 Noroeste 26 Noroeste 0 -- -- 22
2019-04-14 14:00:00 22.4 14 Oeste 27 Oeste 0 -- -- 19
2019-04-14 13:00:00 25.1 10 Oeste 27 Oeste 0 -- -- 14
2019-04-14 12:00:00 23.9 7 Sudoeste 27 Oeste 0 -- -- 16
2019-04-14 11:00:00 18.8 3 Este 9 Este 0 -- -- 52
2019-04-14 10:00:00 14.8 4 Sudeste 9 Nordeste 0 -- -- 58
2019-04-14 09:00:00 15.1 0 Calma 3 Este 0 -- -- 55
2019-04-14 08:00:00 6.2 0 Calma 3 Sudoeste 0 -- -- 77
2019-04-14 07:00:00 5.4 0 Calma 3 Noroeste 0 -- -- 83
2019-04-14 06:00:00 5.7 0 Calma 3 Norte 0 -- -- 80
2019-04-14 05:00:00 5.9 0 Calma 3 Norte 0 -- -- 83
2019-04-14 04:00:00 6.8 0 Calma 3 Oeste 0 -- -- 85
2019-04-14 03:00:00 7.6 0 Calma 4 Nordeste 0 -- -- 85
2019-04-14 02:00:00 8 0 Calma 4 Sudoeste 0 -- -- 82
2019-04-14 01:00:00 8.9 0 Calma 3 Nordeste 0 -- -- 81
2019-04-14 00:00:00 9.9 0 Calma 4 Noroeste 0 -- -- 75
2019-04-13 23:00:00 10.4 0 Calma 4 Norte 0 -- -- 77
2019-04-13 22:00:00 12.1 0 Calma 4 Norte 0 -- -- 79
2019-04-13 21:00:00 14.4 0 Calma 9 Sudeste 0 -- -- 69
2019-04-13 20:00:00 17.5 7 Sudeste 15 Sudeste 0 -- -- 56
2019-04-13 19:00:00 20.5 9 Oeste 20 Oeste 0 -- -- 27
2019-04-13 18:00:00 20.5 8 Noroeste 25 Noroeste 0 -- -- 31
2019-04-13 17:00:00 21.5 8 Noroeste 25 Sudoeste 0 -- -- 31
2019-04-13 16:00:00 21.7 9 Oeste 30 Sudoeste 0 -- -- 32
2019-04-13 15:00:00 21.6 13 Oeste 29 Oeste 0 -- -- 31
2019-04-13 14:00:00 21.2 9 Noroeste 26 Noroeste 0 -- -- 43
2019-04-13 13:00:00 20.8 13 Norte 23 Norte 0 -- -- 39
2019-04-13 12:00:00 22.4 8 Sudoeste 19 Sudoeste 0 -- -- 28
2019-04-13 11:00:00 20 6 Norte 13 Nordeste 0 -- -- 34
2019-04-13 10:00:00 17.3 2 Nordeste 7 Sudeste 0 -- -- 56
2019-04-13 09:00:00 14.1 0 Calma -- -- 0 -- -- 64
2019-04-13 08:00:00 6.1 0 Calma -- -- 0 -- -- 95
2019-04-13 07:00:00 5.8 0 Calma -- -- 0 -- -- 95
2019-04-13 06:00:00 6.1 0 Calma -- -- 0 -- -- 94
2019-04-13 05:00:00 6.9 0 Calma -- -- 0 -- -- 95
2019-04-13 04:00:00 7.5 0 Calma 3 Norte 0 -- -- 94
2019-04-13 03:00:00 8.4 0 Calma 10 Norte 0 -- -- 91
2019-04-13 02:00:00 8.4 2 Norte 4 Oeste 0 -- -- 92
2019-04-13 01:00:00 8.9 0 Calma 3 Nordeste 0 -- -- 92
2019-04-13 00:00:00 9.4 0 Calma 3 Oeste 0 -- -- 90
2019-04-12 23:00:00 10.2 0 Calma 3 Nordeste 0 -- -- 87
2019-04-12 22:00:00 11.5 0 Calma 5 Este 0 -- -- 83
2019-04-12 21:00:00 12.4 2 Nordeste 8 Sudeste 0 -- -- 80
2019-04-12 20:00:00 14.9 4 Sudeste 12 Nordeste 0 -- -- 71
2019-04-12 19:00:00 16.5 7 Nordeste 14 Nordeste 0 -- -- 64
2019-04-12 18:00:00 16.9 5 Nordeste 21 Sur 0 -- -- 64
2019-04-12 17:00:00 17.7 5 Este 20 Sur 0 -- -- 60
2019-04-12 16:00:00 18.6 5 Norte 17 Noroeste 0 -- -- 56
2019-04-12 15:00:00 17.2 8 Norte 15 Norte 0 -- -- 63
2019-04-12 14:00:00 16.9 8 Norte 12 Sur 0 -- -- 59
2019-04-12 13:00:00 17.3 6 Nordeste 16 Sudeste 0 -- -- 55
2019-04-12 12:00:00 17.4 9 Nordeste 17 Norte 0 -- -- 53
2019-04-12 11:00:00 17.7 6 Norte 22 Norte 0 -- -- 50
2019-04-12 10:00:00 16.3 9 Norte 18 Nordeste 0 -- -- 53
2019-04-12 09:00:00 16 4 Este 21 Norte 0 -- -- 51
2019-04-12 08:00:00 15 3 Nordeste 19 Este 0 -- -- 52
2019-04-12 07:00:00 12.9 0 Calma 10 Este 0 -- -- 71
2019-04-12 06:00:00 12.7 2 Sur 5 Nordeste 0 -- -- 75
2019-04-12 05:00:00 13.4 2 Nordeste 10 Oeste 0 -- -- 70
2019-04-12 04:00:00 14.5 6 Sudoeste 13 Sudoeste 0 -- -- 64
2019-04-12 03:00:00 15.1 3 Oeste 24 Oeste 0 -- -- 59
2019-04-12 02:00:00 15.5 13 Oeste 30 Oeste 0 -- -- 54
2019-04-12 01:00:00 14.1 4 Oeste 21 Oeste 0 -- -- 49
2019-04-12 00:00:00 14.5 2 Sur 18 Sudoeste 0 -- -- 51
2019-04-11 23:00:00 15.2 5 Noroeste 18 Oeste 0 -- -- 43
2019-04-11 22:00:00 15.3 10 Sudoeste 18 Oeste 0 -- -- 41
2019-04-11 21:00:00 16 9 Oeste 22 Oeste 0 -- -- 38
2019-04-11 20:00:00 17.4 11 Oeste 23 Noroeste 0 -- -- 30
2019-04-11 19:00:00 18.5 13 Oeste 28 Noroeste 0 -- -- 28
2019-04-11 18:00:00 18.8 18 Oeste 33 Oeste 0 -- -- 30
2019-04-11 17:00:00 19.3 17 Oeste 31 Noroeste 0 -- -- 33
2019-04-11 16:00:00 19.4 17 Noroeste 35 Noroeste 0 -- -- 30
2019-04-11 15:00:00 20.7 10 Noroeste 33 Sudoeste 0 -- -- 29
2019-04-11 14:00:00 19.2 18 Oeste 36 Oeste 0 -- -- 40
2019-04-11 13:00:00 19.6 18 Oeste 35 Oeste 0 -- -- 36
2019-04-11 12:00:00 19.2 11 Noroeste 24 Sudoeste 0 -- -- 48
2019-04-11 11:00:00 19 11 Sudoeste 22 Noroeste 0 -- -- 50
2019-04-11 10:00:00 17.8 4 Nordeste 12 Oeste 0 -- -- 53
2019-04-11 09:00:00 15.1 10 Oeste 21 Oeste 0 -- -- 60
2019-04-11 08:00:00 14 3 Sudoeste 18 Noroeste 0 -- -- 65
2019-04-11 07:00:00 14.3 7 Oeste 22 Noroeste 0 -- -- 60
2019-04-11 06:00:00 14.1 12 Oeste 27 Oeste 0.2 -- -- 60
2019-04-11 05:00:00 15.2 10 Noroeste 23 Oeste 0 -- -- 47
2019-04-11 04:00:00 14.2 5 Oeste 23 Oeste 0 -- -- 50
2019-04-11 03:00:00 13.9 6 Oeste 19 Noroeste 0 -- -- 52
2019-04-11 02:00:00 13.8 6 Oeste 22 Oeste 0 -- -- 54
2019-04-11 01:00:00 12.7 5 Sudoeste 11 Oeste 0 -- -- 62
2019-04-11 00:00:00 12.2 0 Calma 8 Sudoeste 0 -- -- 72
2019-04-10 23:00:00 11.9 5 Sudoeste 10 Sudoeste 0 -- -- 70
2019-04-10 22:00:00 13.2 4 Oeste 12 Oeste 0 -- -- 65
2019-04-10 21:00:00 13.7 7 Sudoeste 12 Oeste 0 -- -- 60
2019-04-10 20:00:00 16 5 Oeste 12 Oeste 0 -- -- 49
2019-04-10 19:00:00 17.4 6 Norte 17 Norte 0 -- -- 42
2019-04-10 18:00:00 18.2 5 Norte 15 Norte 0 -- -- 37
2019-04-10 17:00:00 18.6 7 Norte 17 Norte 0 -- -- 38
2019-04-10 16:00:00 19.5 9 Noroeste 20 Norte 0 -- -- 40
2019-04-10 15:00:00 19.2 12 Oeste 27 Oeste 0 -- -- 44
2019-04-10 14:00:00 17 13 Oeste 27 Oeste 0 -- -- 52
2019-04-10 13:00:00 14.8 13 Oeste 27 Oeste 0 -- -- 65
2019-04-10 12:00:00 15.4 17 Oeste 33 Sudoeste 0 -- -- 63
2019-04-10 11:00:00 15 11 Oeste 26 Oeste 0.2 -- -- 69
2019-04-10 10:00:00 12.5 3 Oeste 15 Oeste 1 -- -- 86
2019-04-10 09:00:00 13.2 5 Sudoeste 18 Oeste 0 -- -- 71
2019-04-10 08:00:00 13.6 6 Oeste 25 Oeste 0.2 -- -- 76
2019-04-10 07:00:00 13.7 13 Noroeste 25 Oeste 0 -- -- 76
2019-04-10 06:00:00 13.8 14 Oeste 27 Oeste 0 -- -- 75
2019-04-10 05:00:00 9.2 2 Sudeste 5 Sudeste 0 -- -- 86
2019-04-10 04:00:00 8.2 0 Calma 6 Nordeste 0 -- -- 86
2019-04-10 03:00:00 9.7 0 Calma 10 Este 0 -- -- 79
2019-04-10 02:00:00 10.6 2 Nordeste 14 Este 0 -- -- 74
2019-04-10 01:00:00 9.7 2 Norte 9 Este 0 -- -- 77
2019-04-10 00:00:00 9.8 4 Sudeste 7 Sudeste 0 -- -- 72
2019-04-09 23:00:00 10.6 5 Norte 17 Sur 0 -- -- 69
2019-04-09 22:00:00 11.1 2 Norte 8 Sudoeste 0 -- -- 68
2019-04-09 21:00:00 14.7 4 Oeste 14 Oeste 0 -- -- 50
2019-04-09 20:00:00 16.6 6 Oeste 17 Oeste 0 -- -- 41
2019-04-09 19:00:00 18.1 10 Oeste 26 Oeste 0 -- -- 37
2019-04-09 18:00:00 18.7 12 Oeste 24 Oeste 0 -- -- 39
2019-04-09 17:00:00 18.3 14 Oeste 30 Oeste 0 -- -- 42
2019-04-09 16:00:00 18.1 12 Oeste 30 Noroeste 0 -- -- 48
2019-04-09 15:00:00 18.1 10 Oeste 33 Oeste 0 -- -- 54
2019-04-09 14:00:00 17 10 Oeste 39 Oeste 0 -- -- 63
2019-04-09 13:00:00 15.9 9 Noroeste 25 Norte 0.6 -- -- 73
2019-04-09 12:00:00 15.7 10 Noroeste 36 Oeste 0.2 -- -- 72
2019-04-09 11:00:00 17 16 Oeste 32 Oeste 0 -- -- 59
2019-04-09 10:00:00 13 13 Oeste 42 Noroeste 2.4 -- -- 87
2019-04-09 09:00:00 15.6 4 Sudeste 14 Norte 0 -- -- 73
2019-04-09 08:00:00 10.8 4 Norte 9 Oeste 0 -- -- 89
2019-04-09 07:00:00 9.7 0 Calma 5 Nordeste 0 -- -- 90
2019-04-09 06:00:00 9.4 0 Calma 3 Nordeste 0 -- -- 90
2019-04-09 05:00:00 10.3 0 Calma 4 Este 0 -- -- 86
2019-04-09 04:00:00 11.1 0 Calma 4 Nordeste 0 -- -- 82
2019-04-09 03:00:00 12 0 Calma 4 Sudoeste 0 -- -- 78
2019-04-09 02:00:00 12 0 Calma 4 Norte 0 -- -- 77
2019-04-09 01:00:00 12.1 3 Nordeste 7 Este 0 -- -- 76
2019-04-09 00:00:00 11.4 0 Calma 5 Nordeste 0 -- -- 77
2019-04-08 23:00:00 11.8 0 Calma 4 Nordeste 0 -- -- 77
2019-04-08 22:00:00 13.1 0 Calma 3 Oeste 0 -- -- 69
2019-04-08 21:00:00 15.2 0 Calma 14 Oeste 0 -- -- 61
2019-04-08 20:00:00 18.3 8 Oeste 18 Noroeste 0 -- -- 44
2019-04-08 19:00:00 19.5 10 Oeste 21 Noroeste 0 -- -- 41
2019-04-08 18:00:00 20.6 8 Oeste 25 Oeste 0 -- -- 38
2019-04-08 17:00:00 21.3 10 Oeste 23 Oeste 0 -- -- 37
2019-04-08 16:00:00 21 13 Oeste 31 Oeste 0 -- -- 38
2019-04-08 15:00:00 21.6 17 Sudoeste 32 Oeste 0 -- -- 41
2019-04-08 14:00:00 21.3 14 Oeste 33 Oeste 0 -- -- 43
2019-04-08 13:00:00 20.4 17 Oeste 37 Oeste 0 -- -- 44
2019-04-08 12:00:00 19.4 6 Oeste 23 Oeste 0 -- -- 52
2019-04-08 11:00:00 18.8 3 Nordeste 12 Norte 0 -- -- 51
2019-04-08 10:00:00 16.7 5 Sur 15 Sudeste 0 -- -- 57
2019-04-08 09:00:00 12.2 0 Calma 3 Norte 0 -- -- 69
2019-04-08 08:00:00 5.2 0 Calma 2 Nordeste 0 -- -- 95
2019-04-08 07:00:00 4.3 0 Calma 3 Nordeste 0 -- -- 95
2019-04-08 06:00:00 4.5 0 Calma 2 Norte 0 -- -- 94
2019-04-08 05:00:00 4.9 0 Calma 3 Nordeste 0 -- -- 94
2019-04-08 04:00:00 5.3 2 Norte 3 Norte 0 -- -- 93
2019-04-08 03:00:00 5.6 0 Calma 3 Norte 0 -- -- 93
2019-04-08 02:00:00 6.2 0 Calma 4 Nordeste 0 -- -- 93
2019-04-08 01:00:00 7 0 Calma 3 Norte 0 -- -- 92
2019-04-08 00:00:00 7.9 0 Calma 4 Norte 0 -- -- 88
2019-04-07 23:00:00 8.6 0 Calma 7 Oeste 0 -- -- 87
2019-04-07 22:00:00 10.5 4 Noroeste 12 Sudoeste 0 -- -- 77
2019-04-07 21:00:00 12.3 6 Oeste 19 Oeste 0 -- -- 69
2019-04-07 20:00:00 13.3 6 Oeste 12 Oeste 0 -- -- 61
2019-04-07 19:00:00 14.5 5 Noroeste 26 Noroeste 0 -- -- 57
2019-04-07 18:00:00 14.1 8 Noroeste 36 Oeste 0 -- -- 57
2019-04-07 17:00:00 14.9 9 Noroeste 33 Oeste 0 -- -- 56
2019-04-07 16:00:00 14.6 13 Noroeste 37 Oeste 0 -- -- 56
2019-04-07 15:00:00 14.3 15 Noroeste 34 Oeste 0 -- -- 57
2019-04-07 14:00:00 14.9 14 Noroeste 35 Sudoeste 0 -- -- 55
2019-04-07 13:00:00 15.6 20 Oeste 50 Oeste 0 -- -- 52
2019-04-07 12:00:00 14.5 13 Noroeste 34 Noroeste 0 -- -- 56
2019-04-07 11:00:00 13.9 17 Oeste 42 Oeste 0 -- -- 58
2019-04-07 10:00:00 14.5 14 Oeste 35 Oeste 0 -- -- 56
2019-04-07 09:00:00 13.5 14 Oeste 28 Oeste 0.4 -- -- 60
2019-04-07 08:00:00 11.1 10 Oeste 27 Oeste 1.4 -- -- 75
2019-04-07 07:00:00 9.3 9 Oeste 30 Oeste 5 -- -- 90
2019-04-07 06:00:00 10 6 Sudoeste 23 Oeste 1 -- -- 87
2019-04-07 05:00:00 7.5 5 Sudeste 17 Oeste 0.2 -- -- 88
2019-04-07 04:00:00 6.6 0 Calma 5 Nordeste 0 -- -- 92
2019-04-07 03:00:00 7 0 Calma 7 Nordeste 0 -- -- 88
2019-04-07 02:00:00 6.8 0 Calma 4 Norte 0 -- -- 86
2019-04-07 01:00:00 7.1 0 Calma 4 Nordeste 0 -- -- 84
2019-04-07 00:00:00 7.9 0 Calma 5 Norte 0 -- -- 81
2019-04-06 23:00:00 8.3 3 Nordeste 5 Nordeste 0 -- -- 81
2019-04-06 22:00:00 10.5 2 Sudoeste 11 Sudoeste 0 -- -- 70
2019-04-06 21:00:00 12.3 4 Sudoeste 14 Sur 0 -- -- 60
2019-04-06 20:00:00 14 5 Sudoeste 21 Sudoeste 0 -- -- 50
2019-04-06 19:00:00 14.9 13 Oeste 31 Oeste 0 -- -- 45
2019-04-06 18:00:00 15.3 11 Oeste 29 Oeste 0 -- -- 44
2019-04-06 17:00:00 17 12 Oeste 31 Oeste 0 -- -- 40
2019-04-06 16:00:00 16.9 17 Oeste 35 Oeste 0 -- -- 41
2019-04-06 15:00:00 16.5 16 Oeste 27 Oeste 0 -- -- 42
2019-04-06 14:00:00 16.3 12 Oeste 40 Oeste 0 -- -- 47
2019-04-06 13:00:00 15.7 15 Oeste 30 Sudoeste 0 -- -- 48
2019-04-06 12:00:00 15.8 12 Oeste 25 Oeste 0 -- -- 48
2019-04-06 11:00:00 16.5 14 Oeste 31 Oeste 0 -- -- 48
2019-04-06 10:00:00 14.2 7 Sudoeste 26 Oeste 0 -- -- 63
2019-04-06 09:00:00 12 12 Oeste 26 Oeste 0 -- -- 69
2019-04-06 08:00:00 8.3 3 Este 9 Noroeste 0 -- -- 93
2019-04-06 07:00:00 8.1 7 Sudoeste 14 Sudoeste 0 -- -- 94
2019-04-06 06:00:00 8.6 5 Oeste 9 Sudoeste 0 -- -- 95
2019-04-06 05:00:00 9.2 3 Nordeste 8 Norte 0 -- -- 93
2019-04-06 04:00:00 10 3 Norte 19 Sur 3.4 -- -- 91
2019-04-06 03:00:00 11.6 4 Oeste 14 Sur 0 -- -- 81
2019-04-06 02:00:00 12.2 4 Sudoeste 20 Sur 0 -- -- 79
2019-04-06 01:00:00 13.4 14 Sur 30 Sur 0 -- -- 76
2019-04-06 00:00:00 13.3 4 Sudeste 32 Sudoeste 0 -- -- 85
2019-04-05 23:00:00 13.6 10 Sudoeste 26 Sudoeste 0.4 -- -- 85
2019-04-05 22:00:00 14.1 8 Sudoeste 25 Sudoeste 0.2 -- -- 77
2019-04-05 21:00:00 14.8 15 Sudoeste 39 Oeste 0 -- -- 69
2019-04-05 20:00:00 14.9 6 Nordeste 22 Sudoeste 0 -- -- 69
2019-04-05 19:00:00 14.9 9 Sudoeste 32 Sudoeste 0 -- -- 73
2019-04-05 18:00:00 15.1 6 Oeste 37 Sudoeste 0 -- -- 71
2019-04-05 17:00:00 17 9 Sudoeste 39 Sudoeste 0 -- -- 53
2019-04-05 16:00:00 17.9 15 Sudoeste 36 Sur 0 -- -- 47
2019-04-05 15:00:00 20.1 18 Sudoeste 37 Sudoeste 0 -- -- 39
2019-04-05 14:00:00 20.5 19 Sudoeste 39 Sudoeste 0 -- -- 33
2019-04-05 13:00:00 19.7 17 Sur 35 Sudoeste 0 -- -- 27
2019-04-05 12:00:00 18.8 13 Sudoeste 30 Sudoeste 0 -- -- 32
2019-04-05 11:00:00 17.2 15 Sudoeste 29 Sudoeste 0 -- -- 38
2019-04-05 10:00:00 15 8 Sur 19 Sur 0 -- -- 43
2019-04-05 09:00:00 10.5 0 Calma 3 Norte 0 -- -- 56
2019-04-05 08:00:00 2.8 0 Calma 3 Noroeste 0 -- -- 85
2019-04-05 07:00:00 2.9 0 Calma 3 Norte 0 -- -- 86
2019-04-05 06:00:00 3.5 0 Calma 4 Nordeste 0 -- -- 85
2019-04-05 05:00:00 4.5 2 Norte 6 Sur 0 -- -- 86
2019-04-05 04:00:00 5.1 2 Norte 4 Sur 0 -- -- 85
2019-04-05 03:00:00 5.5 3 Norte 4 Norte 0 -- -- 85
2019-04-05 02:00:00 6.2 2 Norte 5 Norte 0 -- -- 78
2019-04-05 01:00:00 6.9 0 Calma 13 Sudoeste 0 -- -- 75
2019-04-05 00:00:00 9.5 2 Sur 14 Sudoeste 0 -- -- 64
2019-04-04 23:00:00 10.7 4 Sudoeste 18 Sur 0 -- -- 57
2019-04-04 22:00:00 11.2 6 Sudoeste 15 Sudoeste 0 -- -- 52
2019-04-04 21:00:00 10.7 4 Sur 12 Sudoeste 0 -- -- 37
2019-04-04 20:00:00 12.3 6 Noroeste 19 Oeste 0 -- -- 32
2019-04-04 19:00:00 14.3 11 Oeste 21 Oeste 0 -- -- 31
2019-04-04 18:00:00 14.4 8 Noroeste 28 Noroeste 0 -- -- 27
2019-04-04 17:00:00 15.2 13 Oeste 30 Oeste 0 -- -- 39
2019-04-04 16:00:00 15.1 14 Oeste 31 Oeste 0 -- -- 33
2019-04-04 15:00:00 15.3 12 Noroeste 33 Oeste 0 -- -- 38
2019-04-04 14:00:00 14.9 12 Oeste 35 Oeste 0 -- -- 41
2019-04-04 13:00:00 14.8 14 Oeste 37 Noroeste 0 -- -- 41
2019-04-04 12:00:00 14.3 20 Noroeste 41 Oeste 0 -- -- 44
2019-04-04 11:00:00 14.5 10 Noroeste 30 Noroeste 0 -- -- 45
2019-04-04 10:00:00 12.1 11 Noroeste 31 Oeste 0 -- -- 60
2019-04-04 09:00:00 12.1 9 Oeste 20 Oeste 0 -- -- 62
2019-04-04 08:00:00 11.4 4 Sudoeste 18 Oeste 0 -- -- 66
2019-04-04 07:00:00 11.3 7 Oeste 16 Oeste 0 -- -- 67
2019-04-04 06:00:00 11.4 6 Oeste 17 Oeste 0 -- -- 64
2019-04-04 05:00:00 11.4 4 Oeste 15 Noroeste 0 -- -- 65
2019-04-04 04:00:00 11.2 5 Noroeste 10 Noroeste 0 -- -- 72
2019-04-04 03:00:00 11.2 3 Oeste 14 Noroeste 0 -- -- 78
2019-04-04 02:00:00 11.2 6 Noroeste 19 Norte 0.2 -- -- 81
2019-04-04 01:00:00 11.1 11 Norte 32 Norte 0.6 -- -- 83
2019-04-04 00:00:00 11.7 13 Norte 32 Norte 0.2 -- -- 85
2019-04-03 23:00:00 12.9 14 Noroeste 37 Noroeste 0 -- -- 79
2019-04-03 22:00:00 16.9 13 Oeste 28 Oeste 0 -- -- 66
2019-04-03 21:00:00 16.4 8 Sudoeste 24 Sudoeste 0 -- -- 70
2019-04-03 20:00:00 16.9 12 Sur 25 Sudoeste 0 -- -- 68
2019-04-03 19:00:00 19.1 9 Sudoeste 32 Sur 0 -- -- 56
2019-04-03 18:00:00 20.2 19 Sur 32 Sudoeste 0 -- -- 55
2019-04-03 17:00:00 21.1 18 Sur 36 Sur 0 -- -- 53
2019-04-03 16:00:00 21.8 22 Sur 37 Sur 0 -- -- 51
2019-04-03 15:00:00 22.4 19 Sur 40 Sudoeste 0 -- -- 49
2019-04-03 14:00:00 21.7 17 Sudoeste 42 Sudoeste 0 -- -- 50
2019-04-03 13:00:00 22 15 Sudoeste 33 Sur 0 -- -- 49
2019-04-03 12:00:00 20.5 19 Sur 34 Sur 0 -- -- 55
2019-04-03 11:00:00 19.4 17 Sur 39 Sur 0 -- -- 62
2019-04-03 10:00:00 16.9 13 Sur 27 Sur 0 -- -- 71
2019-04-03 09:00:00 12.8 4 Norte 6 Norte 0 -- -- 88
2019-04-03 08:00:00 8 0 Calma 3 Norte 0 -- -- 97
2019-04-03 07:00:00 8 0 Calma 4 Norte 0 -- -- 97
2019-04-03 06:00:00 8.4 0 Calma 4 Este 0 -- -- 96
2019-04-03 05:00:00 8.7 0 Calma 3 Norte 0 -- -- 96
2019-04-03 04:00:00 9.2 0 Calma 4 Oeste 0 -- -- 96
2019-04-03 03:00:00 9.7 0 Calma 2 Norte 0 -- -- 95
2019-04-03 02:00:00 10.2 0 Calma 3 Nordeste 0 -- -- 93
2019-04-03 01:00:00 11.1 0 Calma 4 Norte 0 -- -- 93
2019-04-03 00:00:00 10.7 0 Calma 5 Norte 0 -- -- 91
2019-04-02 23:00:00 11.6 0 Calma 5 Norte 0 -- -- 90
2019-04-02 22:00:00 13.8 2 Sur 13 Sudeste 0 -- -- 83
2019-04-02 21:00:00 14.4 4 Sudeste 9 Sudeste 0 -- -- 77
2019-04-02 20:00:00 16 2 Sudeste 9 Este 0 -- -- 72
2019-04-02 19:00:00 17.1 3 Sudeste 11 Sudeste 0 -- -- 66
2019-04-02 18:00:00 17.5 5 Sudeste 14 Sudeste 0 -- -- 64
2019-04-02 17:00:00 19.2 4 Este 12 Sur 0 -- -- 57
2019-04-02 16:00:00 19.5 4 Sudeste 11 Este 0 -- -- 54
2019-04-02 15:00:00 18.6 5 Este 14 Este 0 -- -- 58
2019-04-02 14:00:00 19.6 5 Nordeste 18 Este 0 -- -- 54
2019-04-02 13:00:00 20.4 6 Este 14 Este 0 -- -- 48
2019-04-02 12:00:00 18.2 7 Nordeste 14 Nordeste 0 -- -- 53
2019-04-02 11:00:00 18.1 4 Nordeste 9 Nordeste 0 -- -- 53
2019-04-02 10:00:00 17.5 0 Calma 6 Sudeste 0 -- -- 56
2019-04-02 09:00:00 12.3 2 Nordeste 3 Nordeste 0 -- -- 71
2019-04-02 08:00:00 6.5 2 Norte 3 Norte 0 -- -- 93
2019-04-02 07:00:00 6.5 0 Calma 2 Norte 0 -- -- 93
2019-04-02 06:00:00 6.8 0 Calma 2 Norte 0 -- -- 93
2019-04-02 05:00:00 7.5 0 Calma 3 Nordeste 0 -- -- 91
2019-04-02 04:00:00 8.5 0 Calma 2 Norte 0 -- -- 89
2019-04-02 03:00:00 8.5 0 Calma 3 Nordeste 0 -- -- 90
2019-04-02 02:00:00 8 0 Calma 3 Norte 0 -- -- 89
2019-04-02 01:00:00 8.9 0 Calma 3 Norte 0 -- -- 90
2019-04-02 00:00:00 9.8 0 Calma 3 Nordeste 0 -- -- 87
2019-04-01 23:00:00 11.6 2 Nordeste 4 Oeste 0 -- -- 80
2019-04-01 22:00:00 11.9 0 Calma 4 Sudoeste 0 -- -- 81
2019-04-01 21:00:00 13.4 0 Calma 3 Nordeste 0 -- -- 72
2019-04-01 20:00:00 14.5 0 Calma 6 Nordeste 0 -- -- 65
2019-04-01 19:00:00 15.3 3 Nordeste 14 Este 0 -- -- 65
2019-04-01 18:00:00 16.3 5 Este 16 Sudeste 0 -- -- 59
2019-04-01 17:00:00 17.2 5 Este 15 Este 0 -- -- 52
2019-04-01 16:00:00 17.8 6 Este 16 Nordeste 0 -- -- 47
2019-04-01 15:00:00 18.7 4 Este 18 Sudeste 0 -- -- 49
2019-04-01 14:00:00 17.8 7 Este 16 Nordeste 0 -- -- 53
2019-04-01 13:00:00 17 9 Este 18 Sudeste 0 -- -- 60
2019-04-01 12:00:00 16.4 6 Este 17 Este 0 -- -- 65
2019-04-01 11:00:00 15.5 7 Este 16 Este 0 -- -- 71
2019-04-01 10:00:00 13.4 0 Calma 3 Sudoeste 0 -- -- 88
2019-04-01 09:00:00 12.2 0 Calma 2 Nordeste 0 -- -- 95
2019-04-01 08:00:00 11.6 0 Calma 6 Oeste 0 -- -- 96
2019-04-01 07:00:00 11.6 0 Calma 3 Oeste 0 -- -- 96
2019-04-01 06:00:00 11.6 0 Calma 3 Oeste 0 -- -- 96
2019-04-01 05:00:00 11.9 0 Calma 2 Este 0 -- -- 95
2019-04-01 04:00:00 12.1 0 Calma 6 Sudoeste 0 -- -- 95
2019-04-01 03:00:00 12.3 0 Calma 3 Oeste 0 -- -- 96
2019-04-01 02:00:00 12.4 0 Calma 6 Este 0 -- -- 95
2019-04-01 01:00:00 12.4 0 Calma 5 Este 0 -- -- 95
2019-04-01 00:00:00 13 2 Este 6 Oeste 0.2 -- -- 93
2019-03-31 23:00:00 13.3 3 Este 12 Nordeste 0.2 -- -- 90
2019-03-31 22:00:00 13.6 4 Nordeste 10 Nordeste 0 -- -- 92
2019-03-31 21:00:00 13.6 0 Calma 6 Sudeste 0.2 -- -- 93
2019-03-31 20:00:00 14 2 Sudeste 12 Este 0.2 -- -- 91
2019-03-31 19:00:00 14.9 4 Este 15 Sudeste 0 -- -- 83
2019-03-31 18:00:00 15.2 5 Este 15 Sudeste 0 -- -- 84
2019-03-31 17:00:00 14.9 6 Este 17 Sudeste 0.2 -- -- 85
2019-03-31 16:00:00 15.9 9 Este 23 Este 0 -- -- 77
2019-03-31 15:00:00 18.5 10 Sudeste 26 Sudeste 0 -- -- 65
2019-03-31 14:00:00 19.1 8 Este 24 Nordeste 0 -- -- 60
2019-03-31 13:00:00 17.8 9 Este 21 Nordeste 0 -- -- 64
2019-03-31 12:00:00 18 10 Nordeste 19 Nordeste 0 -- -- 63
2019-03-31 11:00:00 17 6 Este 12 Nordeste 0 -- -- 67
2019-03-31 10:00:00 15.9 4 Sur 11 Sur 0 -- -- 77
2019-03-31 09:00:00 14.3 6 Sur 13 Sur 0 -- -- 85
2019-03-31 08:00:00 11.9 0 Calma 4 Sur 0 -- -- 94
2019-03-31 07:00:00 11.1 0 Calma 2 Norte 0 -- -- 93
2019-03-31 06:00:00 10.7 0 Calma -- -- 0 -- -- 94
2019-03-31 05:00:00 10.7 0 Calma 4 Oeste 0 -- -- 93
2019-03-31 03:00:00 11.4 0 Calma 3 Sudeste 0 -- -- 92
2019-03-31 01:00:00 11.7 0 Calma 2 Sudeste 0 -- -- 89
2019-03-31 00:00:00 11.8 0 Calma 2 Oeste 0 -- -- 88
2019-03-30 23:00:00 12.3 0 Calma 3 Sudoeste 0 -- -- 87
2019-03-30 22:00:00 13.1 0 Calma 5 Sur 0 -- -- 82
2019-03-30 21:00:00 14 2 Sudeste 11 Sudeste 0 -- -- 77
2019-03-30 20:00:00 13.8 3 Sudeste 15 Este 0 -- -- 81
2019-03-30 19:00:00 14.3 4 Sudeste 17 Este 0 -- -- 76
2019-03-30 18:00:00 15.1 11 Nordeste 22 Nordeste 0 -- -- 72
2019-03-30 17:00:00 15.3 10 Nordeste 22 Este 0 -- -- 67
2019-03-30 16:00:00 15.7 11 Nordeste 23 Nordeste 0 -- -- 68
2019-03-30 15:00:00 16 11 Nordeste 31 Nordeste 0 -- -- 64
2019-03-30 14:00:00 17 14 Este 27 Este 0 -- -- 59
2019-03-30 13:00:00 17 13 Nordeste 27 Este 0 -- -- 57
2019-03-30 12:00:00 16.2 13 Nordeste 23 Nordeste 0 -- -- 58
2019-03-30 11:00:00 15.7 10 Nordeste 21 Este 0 -- -- 60
2019-03-30 10:00:00 16.8 7 Nordeste 14 Este 0 -- -- 54
2019-03-30 09:00:00 17.1 2 Sudeste 5 Sudeste 0 -- -- 51
2019-03-30 08:00:00 12.6 2 Nordeste 4 Nordeste 0 -- -- 71
2019-03-30 07:00:00 9.2 0 Calma 3 Nordeste 0 -- -- 83
2019-03-30 06:00:00 10.2 0 Calma 5 Este 0 -- -- 80
2019-03-30 05:00:00 10.3 0 Calma 5 Nordeste 0 -- -- 80
2019-03-30 04:00:00 10 0 Calma 5 Este 0 -- -- 84
2019-03-30 03:00:00 9.6 0 Calma 5 Oeste 0 -- -- 86
2019-03-30 02:00:00 9 3 Oeste 6 Oeste 0 -- -- 86
2019-03-30 01:00:00 9.7 0 Calma 6 Oeste 0 -- -- 83
2019-03-30 00:00:00 9 0 Calma 5 Oeste 0 -- -- 86
2019-03-29 23:00:00 8 0 Calma 3 Norte 0 -- -- 86
2019-03-29 22:00:00 8.7 0 Calma 4 Oeste 0 -- -- 83
2019-03-29 21:00:00 9.3 0 Calma 4 Norte 0 -- -- 81
2019-03-29 20:00:00 10.5 0 Calma 6 Este 0 -- -- 76
2019-03-29 19:00:00 13 3 Nordeste 16 Norte 0 -- -- 65
2019-03-29 18:00:00 14.2 11 Norte 23 Norte 0 -- -- 59
2019-03-29 17:00:00 15.3 13 Norte 26 Norte 0 -- -- 55
2019-03-29 16:00:00 16.7 8 Nordeste 19 Este 0 -- -- 51
2019-03-29 15:00:00 17.5 9 Este 23 Sudeste 0 -- -- 34
2019-03-29 14:00:00 17.6 8 Este 22 Este 0 -- -- 38
2019-03-29 13:00:00 17.9 9 Este 20 Nordeste 0 -- -- 34
2019-03-29 12:00:00 17.3 10 Este 22 Sudeste 0 -- -- 47
2019-03-29 11:00:00 17.1 11 Este 20 Este 0 -- -- 51
2019-03-29 10:00:00 16.7 6 Norte 17 Nordeste 0 -- -- 49
2019-03-29 09:00:00 15.9 2 Nordeste 7 Nordeste 0 -- -- 57
2019-03-29 08:00:00 11.3 0 Calma 4 Norte 0 -- -- 71
2019-03-29 07:00:00 5.4 2 Norte 5 Noroeste 0 -- -- 89
2019-03-29 06:00:00 5.5 2 Norte 4 Noroeste 0 -- -- 88
2019-03-29 05:00:00 5.2 2 Norte 4 Norte 0 -- -- 85
2019-03-29 04:00:00 5.3 0 Calma 5 Norte 0 -- -- 81
2019-03-29 03:00:00 5.2 0 Calma 4 Norte 0 -- -- 78
2019-03-29 02:00:00 5.7 0 Calma 4 Oeste 0 -- -- 75
2019-03-29 01:00:00 5.9 0 Calma 6 Sudeste 0 -- -- 79
2019-03-29 00:00:00 6.6 2 Norte 5 Norte 0 -- -- 77
2019-03-28 23:00:00 7.6 0 Calma 4 Sudoeste 0 -- -- 77
2019-03-28 22:00:00 8.3 2 Noroeste 3 Oeste 0 -- -- 80
2019-03-28 21:00:00 8.9 0 Calma 3 Oeste 0 -- -- 80
2019-03-28 20:00:00 10.3 0 Calma 2 Norte 0 -- -- 76
2019-03-28 19:00:00 13.2 0 Calma 13 Este 0 -- -- 63
2019-03-28 18:00:00 14.8 6 Este 17 Nordeste 0 -- -- 53
2019-03-28 17:00:00 15.8 8 Este 18 Este 0 -- -- 50
2019-03-28 16:00:00 16.6 7 Norte 21 Nordeste 0 -- -- 43
2019-03-28 15:00:00 17.9 7 Este 21 Este 0 -- -- 46
2019-03-28 14:00:00 17.8 10 Este 33 Este 0 -- -- 45
2019-03-28 13:00:00 17.7 9 Este 21 Este 0 -- -- 44
2019-03-28 12:00:00 18 9 Norte 20 Nordeste 0 -- -- 40
2019-03-28 11:00:00 16.8 10 Norte 21 Norte 0 -- -- 51
2019-03-28 10:00:00 15.7 10 Nordeste 17 Nordeste 0 -- -- 57
2019-03-28 09:00:00 15.8 5 Nordeste 15 Norte 0 -- -- 52
2019-03-28 08:00:00 13.5 4 Norte 8 Norte 0 -- -- 65
2019-03-28 07:00:00 8.2 0 Calma 13 Norte 0 -- -- 83
2019-03-28 06:00:00 11.2 6 Norte 15 Norte 0 -- -- 70
2019-03-28 05:00:00 10.9 3 Noroeste 12 Norte 0 -- -- 74
2019-03-28 04:00:00 9.9 5 Noroeste 11 Norte 0 -- -- 72
2019-03-28 03:00:00 10.6 4 Noroeste 12 Oeste 0 -- -- 67
2019-03-28 02:00:00 10.9 2 Oeste 14 Norte 0 -- -- 62
2019-03-28 01:00:00 11.8 5 Noroeste 26 Oeste 0 -- -- 67
2019-03-28 00:00:00 12 11 Noroeste 23 Oeste 0 -- -- 64
2019-03-27 23:00:00 9.3 3 Norte 13 Noroeste 0 -- -- 69
2019-03-27 22:00:00 8.6 3 Noroeste 10 Sudoeste 0 -- -- 70
2019-03-27 21:00:00 8.1 0 Calma 5 Oeste 0 -- -- 77
2019-03-27 20:00:00 9.3 0 Calma 4 Nordeste 0 -- -- 74
2019-03-27 19:00:00 11.9 2 Nordeste 16 Norte 0 -- -- 64
2019-03-27 18:00:00 13.1 9 Nordeste 18 Nordeste 0 -- -- 59
2019-03-27 17:00:00 14.2 8 Nordeste 24 Nordeste 0 -- -- 54
2019-03-27 16:00:00 14.9 12 Norte 29 Nordeste 0 -- -- 49
2019-03-27 15:00:00 15.5 15 Norte 32 Norte 0 -- -- 47
2019-03-27 14:00:00 16.2 11 Norte 36 Norte 0 -- -- 44
2019-03-27 13:00:00 16.6 13 Norte 35 Nordeste 0 -- -- 45
2019-03-27 12:00:00 16.2 18 Norte 38 Nordeste 0 -- -- 48
2019-03-27 11:00:00 15.4 16 Norte 34 Norte 0 -- -- 55
2019-03-27 10:00:00 14.8 20 Norte 32 Norte 0 -- -- 57
2019-03-27 09:00:00 14.4 17 Norte 30 Norte 0 -- -- 58
2019-03-27 08:00:00 13.5 10 Norte 29 Norte 0 -- -- 60
2019-03-27 07:00:00 12.2 14 Norte 30 Norte 0 -- -- 59
2019-03-27 06:00:00 12.2 12 Norte 35 Nordeste 0 -- -- 55
2019-03-27 05:00:00 12.7 15 Norte 35 Norte 0 -- -- 50
2019-03-27 04:00:00 12.5 10 Norte 27 Nordeste 0 -- -- 56
2019-03-27 03:00:00 12.5 4 Este 24 Nordeste 0 -- -- 55
2019-03-27 02:00:00 12.4 3 Norte 21 Este 0 -- -- 55
2019-03-27 01:00:00 10.6 4 Nordeste 9 Sudeste 0 -- -- 62
2019-03-27 00:00:00 8.4 3 Este 8 Este 0 -- -- 67
2019-03-26 23:00:00 6.7 2 Noroeste 5 Norte 0 -- -- 68
2019-03-26 22:00:00 7.1 0 Calma 7 Oeste 0 -- -- 66
2019-03-26 21:00:00 8.3 2 Noroeste 6 Oeste 0 -- -- 62
2019-03-26 20:00:00 8.8 2 Noroeste 8 Oeste 0 -- -- 60
2019-03-26 19:00:00 12.1 4 Este 25 Este 0 -- -- 45
2019-03-26 18:00:00 12.9 9 Este 28 Este 0 -- -- 46
2019-03-26 17:00:00 13.9 8 Nordeste 35 Norte 0 -- -- 48
2019-03-26 16:00:00 14.2 15 Norte 41 Norte 0 -- -- 44
2019-03-26 15:00:00 14.5 17 Nordeste 45 Norte 0 -- -- 41
2019-03-26 14:00:00 14.5 22 Norte 49 Norte 0 -- -- 40
2019-03-26 13:00:00 14.6 24 Norte 50 Norte 0 -- -- 38
2019-03-26 12:00:00 14.9 25 Norte 49 Nordeste 0 -- -- 39
2019-03-26 11:00:00 14.9 24 Norte 46 Norte 0 -- -- 35
2019-03-26 10:00:00 15 21 Norte 42 Norte 0 -- -- 30
2019-03-26 09:00:00 14.6 22 Norte 44 Norte 0 -- -- 29
2019-03-26 08:00:00 13.4 17 Norte 40 Norte 0 -- -- 30
2019-03-26 07:00:00 13.5 15 Norte 39 Nordeste 0 -- -- 38
2019-03-26 06:00:00 13.1 12 Norte 30 Norte 0 -- -- 52
2019-03-26 05:00:00 11.7 0 Calma 9 Nordeste 0 -- -- 72
2019-03-26 04:00:00 7.9 2 Nordeste 7 Este 0 -- -- 93
2019-03-26 03:00:00 7.6 0 Calma 5 Nordeste 0 -- -- 92
2019-03-26 02:00:00 8.2 2 Nordeste 4 Norte 0 -- -- 92
2019-03-26 01:00:00 8.3 0 Calma 6 Oeste 0 -- -- 92
2019-03-26 00:00:00 8.6 0 Calma 4 Norte 0 -- -- 92
2019-03-25 23:00:00 9.2 2 Norte 4 Norte 0 -- -- 90
2019-03-25 22:00:00 9.8 0 Calma 4 Norte 0 -- -- 89
2019-03-25 21:00:00 11 0 Calma 5 Sur 0 -- -- 85
2019-03-25 20:00:00 12.4 3 Nordeste 4 Norte 0 -- -- 80
2019-03-25 19:00:00 14.4 0 Calma 10 Sudeste 0 -- -- 72
2019-03-25 18:00:00 16.2 5 Este 15 Nordeste 0 -- -- 62
2019-03-25 17:00:00 17.3 9 Nordeste 17 Este 0 -- -- 55
2019-03-25 16:00:00 18.7 9 Este 20 Este 0 -- -- 50
2019-03-25 15:00:00 19.6 9 Este 19 Este 0 -- -- 44
2019-03-25 14:00:00 20 8 Este 23 Este 0 -- -- 43
2019-03-25 13:00:00 20.2 9 Este 23 Este 0 -- -- 41
2019-03-25 12:00:00 20.3 9 Este 23 Sudeste 0 -- -- 39
2019-03-25 11:00:00 20.6 9 Este 21 Nordeste 0 -- -- 39
2019-03-25 10:00:00 20 8 Nordeste 22 Nordeste 0 -- -- 36
2019-03-25 09:00:00 19.4 3 Norte 8 Nordeste 0 -- -- 36
2019-03-25 08:00:00 11.3 2 Norte 5 Nordeste 0 -- -- 60
2019-03-25 07:00:00 5.2 0 Calma 4 Oeste 0 -- -- 84
2019-03-25 06:00:00 6.1 0 Calma 3 Nordeste 0 -- -- 76
2019-03-25 05:00:00 6.4 2 Noroeste 5 Oeste 0 -- -- 76
2019-03-25 04:00:00 6.4 2 Norte 4 Norte 0 -- -- 77
2019-03-25 03:00:00 6.9 0 Calma 4 Nordeste 0 -- -- 75
2019-03-25 02:00:00 7 0 Calma 3 Nordeste 0 -- -- 80
2019-03-25 01:00:00 7.4 0 Calma 3 Norte 0 -- -- 80
2019-03-25 00:00:00 8.3 0 Calma 4 Norte 0 -- -- 78